Terminal Aerodrome Forecast
Issued by NWS Wichita, KS

Home | Current Version | Previous Version | Text Only | Print | Product List | Glossary On
Versions: 1 2 3 4 5 6 7 8 9 10 11 12 13 14 15 16 17 18 19 20 21 22 23
886
FTUS43 KICT 301144
TAFICT
TAF
KICT 301144Z 3012/3112 17008KT P6SM SCT150
     FM302000 17011KT P6SM SCT050 SCT250
     FM310000 16011KT P6SM SCT200
     FM310800 17007KT P6SM VCTS SCT020 BKN040CB
     FM311100 18011KT P6SM SCT020=

USA.gov is the U.S. government's official web portal to all federal, state and local government web resources and services.